Time;durP1;ratioP1;P1;durP2;ratioP2;P2;SDS_P1;SDS_P2;PMS_P1;PMS_P2;Temp;Humidity;BMP_temperature;BMP_pressure;BME280_temperature;BME280_humidity;BME280_pressure;Samples;Min_cycle;Max_cycle;Signal;HPM_P1;HPM_P2
2023/06/17 00:01:30;;;;;;;;;;;17.80;99.90;;;;;;5095109;28;20462;-65
2023/06/17 00:03:56;;;;;;;;;;;17.70;99.90;;;;;;5094748;28;20017;-65
2023/06/17 00:06:21;;;;;;;;;;;17.70;99.90;;;;;;5094698;28;20005;-66
2023/06/17 00:08:47;;;;;;;;;;;17.70;99.90;;;;;;5094734;28;19988;-65
2023/06/17 00:11:12;;;;;;;;;;;17.70;99.90;;;;;;5094621;28;20006;-65
2023/06/17 00:13:38;;;;;;;;;;;17.70;99.90;;;;;;5094757;28;19981;-65
2023/06/17 00:16:04;;;;;;;;;;;17.80;99.90;;;;;;5094597;28;20079;-66
2023/06/17 00:18:32;;;;;;;;;;;17.80;99.90;;;;;;5094954;28;20405;-66
2023/06/17 00:20:58;;;;;;;;;;;17.80;99.90;;;;;;5094856;28;19985;-64
2023/06/17 00:23:24;;;;;;;;;;;17.80;99.90;;;;;;5094538;28;20395;-64
2023/06/17 00:25:49;;;;;;;;;;;17.70;99.90;;;;;;5094215;28;19984;-66
2023/06/17 00:28:16;;;;;;;;;;;17.70;99.90;;;;;;5094532;28;20096;-64
2023/06/17 00:30:42;;;;;;;;;;;17.60;99.90;;;;;;5094602;28;20073;-64
2023/06/17 00:33:08;;;;;;;;;;;17.50;99.90;;;;;;5094407;28;20352;-64
2023/06/17 00:35:35;;;;;;;;;;;17.50;99.90;;;;;;5094406;28;20006;-66
2023/06/17 00:38:01;;;;;;;;;;;17.50;99.90;;;;;;5094266;28;19981;-65
2023/06/17 00:40:26;;;;;;;;;;;17.50;99.90;;;;;;5094173;28;19989;-65
2023/06/17 00:42:52;;;;;;;;;;;17.50;99.90;;;;;;5094303;28;19985;-65
2023/06/17 00:45:18;;;;;;;;;;;17.50;99.90;;;;;;5094249;28;20429;-66
2023/06/17 00:47:43;;;;;;;;;;;17.60;99.90;;;;;;5093980;28;20442;-65
2023/06/17 00:50:14;;;;;;;;;;;17.50;99.90;;;;;;5094217;28;19981;-65
2023/06/17 00:52:41;;;;;;;;;;;17.60;99.90;;;;;;5094100;28;19988;-65
2023/06/17 00:55:08;;;;;;;;;;;17.60;99.90;;;;;;5093817;28;19985;-65
2023/06/17 00:57:34;;;;;;;;;;;17.60;99.90;;;;;;5094013;28;19981;-64
2023/06/17 01:00:00;;;;;;;;;;;17.60;99.90;;;;;;5094011;28;20450;-64
2023/06/17 01:02:27;;;;;;;;;;;17.50;99.90;;;;;;5093598;28;20017;-66
2023/06/17 01:04:53;;;;;;;;;;;17.50;99.90;;;;;;5093949;28;20033;-65
2023/06/17 01:07:35;;;;;;;;;;;17.50;99.90;;;;;;5093703;28;20520;-65
2023/06/17 01:10:18;;;;;;;;;;;17.50;99.90;;;;;;5093744;28;19981;-66
2023/06/17 01:12:44;;;;;;;;;;;17.40;99.90;;;;;;5093684;28;19991;-65
2023/06/17 01:15:10;;;;;;;;;;;17.40;99.90;;;;;;5093871;28;20405;-66
2023/06/17 01:17:36;;;;;;;;;;;17.40;99.90;;;;;;5093788;28;20030;-65
2023/06/17 01:20:03;;;;;;;;;;;17.40;99.90;;;;;;5093798;28;19985;-66
2023/06/17 01:22:29;;;;;;;;;;;17.40;99.90;;;;;;5093718;28;20017;-65
2023/06/17 01:24:56;;;;;;;;;;;17.50;99.90;;;;;;5093948;28;19992;-64
2023/06/17 01:27:23;;;;;;;;;;;17.50;99.90;;;;;;5093695;28;20048;-66
2023/06/17 01:29:48;;;;;;;;;;;17.50;99.90;;;;;;5093597;28;20076;-65
2023/06/17 01:32:14;;;;;;;;;;;17.50;99.90;;;;;;5093663;28;20469;-65
2023/06/17 01:34:52;;;;;;;;;;;17.40;99.90;;;;;;5093892;28;20363;-65
2023/06/17 01:37:20;;;;;;;;;;;17.40;99.90;;;;;;5096876;28;20343;-65
2023/06/17 01:39:47;;;;;;;;;;;17.40;99.90;;;;;;5097532;28;20414;-65
2023/06/17 01:42:20;;;;;;;;;;;17.40;99.90;;;;;;5097934;28;19989;-66
2023/06/17 01:44:47;;;;;;;;;;;17.40;99.90;;;;;;5097651;28;20359;-64
2023/06/17 01:47:12;;;;;;;;;;;17.40;99.90;;;;;;5097531;28;20012;-65
2023/06/17 01:49:38;;;;;;;;;;;17.40;99.90;;;;;;5097441;28;19981;-66
2023/06/17 01:52:04;;;;;;;;;;;17.40;99.90;;;;;;5097401;28;19981;-65
2023/06/17 01:54:30;;;;;;;;;;;17.50;99.90;;;;;;5097510;28;19989;-65
2023/06/17 01:56:55;;;;;;;;;;;17.50;99.90;;;;;;5097317;28;20455;-66
2023/06/17 01:59:21;;;;;;;;;;;17.50;99.90;;;;;;5097463;28;19989;-64
2023/06/17 02:01:47;;;;;;;;;;;17.60;99.90;;;;;;5097285;28;20004;-66
2023/06/17 02:04:12;;;;;;;;;;;17.60;99.90;;;;;;5097074;28;20027;-65
2023/06/17 02:06:38;;;;;;;;;;;17.60;99.90;;;;;;5096941;28;20009;-65
2023/06/17 02:09:04;;;;;;;;;;;17.70;99.90;;;;;;5096963;28;19981;-66
2023/06/17 02:11:30;;;;;;;;;;;17.70;99.90;;;;;;5097188;28;19988;-65
2023/06/17 02:13:55;;;;;;;;;;;17.80;99.90;;;;;;5096949;28;19989;-65
2023/06/17 02:16:21;;;;;;;;;;;17.70;99.90;;;;;;5097131;28;19985;-65
2023/06/17 02:18:48;;;;;;;;;;;17.70;99.90;;;;;;5097107;28;20031;-65
2023/06/17 02:21:13;;;;;;;;;;;17.70;99.90;;;;;;5097127;28;20035;-64
2023/06/17 02:23:39;;;;;;;;;;;17.80;99.90;;;;;;5096682;28;19980;-66
2023/06/17 02:26:04;;;;;;;;;;;17.80;99.90;;;;;;5096814;28;20019;-65
2023/06/17 02:28:31;;;;;;;;;;;17.80;99.90;;;;;;5096649;28;20005;-64
2023/06/17 02:30:56;;;;;;;;;;;17.80;99.90;;;;;;5097340;28;19989;-66
2023/06/17 02:33:22;;;;;;;;;;;17.70;99.90;;;;;;5096843;28;19988;-64
2023/06/17 02:35:48;;;;;;;;;;;17.60;99.90;;;;;;5096910;28;20329;-64
2023/06/17 02:38:14;;;;;;;;;;;17.60;99.90;;;;;;5096337;28;20118;-65
2023/06/17 02:40:40;;;;;;;;;;;17.50;99.90;;;;;;5096610;28;20428;-64
2023/06/17 02:43:06;;;;;;;;;;;17.50;99.90;;;;;;5096747;28;20431;-66
2023/06/17 02:45:31;;;;;;;;;;;17.60;99.90;;;;;;5096362;28;19985;-65
2023/06/17 02:47:57;;;;;;;;;;;17.60;99.90;;;;;;5095073;28;20012;-64
2023/06/17 02:50:23;;;;;;;;;;;17.60;99.90;;;;;;5096450;28;20095;-65
2023/06/17 02:52:55;;;;;;;;;;;17.60;99.90;;;;;;5096043;28;20509;-65
2023/06/17 02:55:27;;;;;;;;;;;17.50;99.90;;;;;;5096238;28;20116;-64
2023/06/17 02:57:53;;;;;;;;;;;17.60;99.90;;;;;;5096172;28;19985;-64
2023/06/17 03:00:18;;;;;;;;;;;17.60;99.90;;;;;;5096155;28;19988;-65
2023/06/17 03:02:44;;;;;;;;;;;17.60;99.90;;;;;;5096050;28;20099;-65
2023/06/17 03:05:09;;;;;;;;;;;17.50;99.90;;;;;;5096031;28;19981;-64
2023/06/17 03:07:35;;;;;;;;;;;17.50;99.90;;;;;;5095662;28;20005;-65
2023/06/17 03:10:04;;;;;;;;;;;17.40;99.90;;;;;;5096245;28;20043;-64
2023/06/17 03:12:30;;;;;;;;;;;17.30;99.90;;;;;;5095996;28;20021;-64
2023/06/17 03:14:57;;;;;;;;;;;17.30;99.90;;;;;;5096095;28;20043;-64
2023/06/17 03:17:24;;;;;;;;;;;17.30;99.90;;;;;;5095856;28;19988;-64
2023/06/17 03:19:50;;;;;;;;;;;17.40;99.90;;;;;;5095767;28;20041;-65
2023/06/17 03:22:15;;;;;;;;;;;17.30;99.90;;;;;;5095494;28;19985;-64
2023/06/17 03:24:41;;;;;;;;;;;17.20;99.90;;;;;;5095753;28;20439;-64
2023/06/17 03:27:07;;;;;;;;;;;17.20;99.90;;;;;;5095560;28;20005;-64
2023/06/17 03:29:35;;;;;;;;;;;17.30;99.90;;;;;;5095548;28;19980;-65
2023/06/17 03:32:01;;;;;;;;;;;17.30;99.90;;;;;;5095598;28;20027;-65
2023/06/17 03:34:26;;;;;;;;;;;17.30;99.90;;;;;;5095546;28;19981;-64
2023/06/17 03:36:52;;;;;;;;;;;17.30;99.90;;;;;;5095224;28;19981;-65
2023/06/17 03:39:17;;;;;;;;;;;17.30;99.90;;;;;;5095378;28;20034;-64
2023/06/17 03:41:43;;;;;;;;;;;17.30;99.90;;;;;;5095352;28;20029;-64
2023/06/17 03:44:09;;;;;;;;;;;17.40;99.90;;;;;;5095624;28;20427;-65
2023/06/17 03:46:34;;;;;;;;;;;17.40;99.90;;;;;;5095047;28;20031;-66
2023/06/17 03:49:00;;;;;;;;;;;17.30;99.90;;;;;;5095135;28;19981;-68
2023/06/17 03:51:26;;;;;;;;;;;17.30;99.90;;;;;;5095412;28;20088;-66
2023/06/17 03:53:51;;;;;;;;;;;17.40;99.90;;;;;;5095078;28;20457;-64
2023/06/17 03:56:17;;;;;;;;;;;17.30;99.90;;;;;;5095090;28;20347;-64
2023/06/17 03:58:42;;;;;;;;;;;17.30;99.90;;;;;;5094566;28;19981;-66
2023/06/17 04:01:12;;;;;;;;;;;17.30;99.90;;;;;;5094899;28;20024;-64
2023/06/17 04:03:37;;;;;;;;;;;17.30;99.90;;;;;;5094693;28;20016;-64
2023/06/17 04:06:03;;;;;;;;;;;17.40;99.90;;;;;;5095084;28;20001;-64
2023/06/17 04:08:29;;;;;;;;;;;17.50;99.90;;;;;;5094696;28;20028;-66
2023/06/17 04:10:54;;;;;;;;;;;17.50;99.90;;;;;;5094928;28;19985;-64
2023/06/17 04:13:20;;;;;;;;;;;17.50;99.90;;;;;;5094831;28;20003;-64
2023/06/17 04:15:46;;;;;;;;;;;17.50;99.90;;;;;;5094746;28;19981;-64
2023/06/17 04:18:11;;;;;;;;;;;17.60;99.90;;;;;;5094407;28;19986;-64
2023/06/17 04:20:37;;;;;;;;;;;17.60;99.90;;;;;;5094584;28;19981;-65
2023/06/17 04:23:03;;;;;;;;;;;17.60;99.90;;;;;;5094633;28;20036;-65
2023/06/17 04:25:32;;;;;;;;;;;17.60;99.90;;;;;;5094469;28;19981;-64
2023/06/17 04:27:58;;;;;;;;;;;17.60;99.90;;;;;;5094535;28;20005;-65
2023/06/17 04:30:25;;;;;;;;;;;17.60;99.90;;;;;;5094723;28;19992;-64
2023/06/17 04:32:54;;;;;;;;;;;17.60;99.90;;;;;;5094130;28;20026;-66
2023/06/17 04:35:20;;;;;;;;;;;17.70;99.90;;;;;;5094570;28;19988;-65
2023/06/17 04:37:53;;;;;;;;;;;17.70;99.90;;;;;;5094384;28;20034;-65
2023/06/17 04:40:22;;;;;;;;;;;17.70;99.90;;;;;;5094250;28;20072;-64
2023/06/17 04:42:51;;;;;;;;;;;17.90;99.90;;;;;;5094234;28;20328;-66
2023/06/17 04:45:17;;;;;;;;;;;17.90;99.90;;;;;;5094216;28;19987;-65
2023/06/17 04:47:45;;;;;;;;;;;17.90;99.90;;;;;;5093765;28;20039;-65
2023/06/17 04:50:12;;;;;;;;;;;18.00;99.90;;;;;;5094175;28;19985;-64
2023/06/17 04:52:42;;;;;;;;;;;18.00;99.90;;;;;;5094138;28;20009;-64
2023/06/17 04:55:08;;;;;;;;;;;18.10;99.90;;;;;;5094192;28;19988;-65
2023/06/17 04:57:34;;;;;;;;;;;18.10;99.90;;;;;;5094121;28;20030;-64
2023/06/17 04:59:59;;;;;;;;;;;18.10;99.90;;;;;;5094063;28;19981;-65
2023/06/17 05:02:25;;;;;;;;;;;18.00;99.90;;;;;;5093498;28;20036;-66
2023/06/17 05:04:50;;;;;;;;;;;18.00;99.90;;;;;;5093984;28;19985;-65
2023/06/17 05:07:16;;;;;;;;;;;18.00;99.90;;;;;;5093802;28;20100;-65
2023/06/17 05:09:43;;;;;;;;;;;18.10;99.90;;;;;;5093031;28;21428;-65
2023/06/17 05:12:09;;;;;;;;;;;18.20;99.90;;;;;;5093144;28;19981;-66
2023/06/17 05:14:35;;;;;;;;;;;18.20;99.90;;;;;;5093957;28;19981;-66
2023/06/17 05:17:01;;;;;;;;;;;18.20;99.90;;;;;;5093538;28;20503;-66
2023/06/17 05:19:26;;;;;;;;;;;18.20;99.90;;;;;;5093836;28;20097;-66
2023/06/17 05:21:52;;;;;;;;;;;18.30;99.90;;;;;;5093806;28;19982;-64
2023/06/17 05:24:17;;;;;;;;;;;18.30;99.90;;;;;;5093585;28;19985;-66
2023/06/17 05:26:43;;;;;;;;;;;18.20;99.90;;;;;;5094135;28;20008;-65
2023/06/17 05:29:08;;;;;;;;;;;18.20;99.90;;;;;;5093742;28;19989;-64
2023/06/17 05:31:34;;;;;;;;;;;18.30;99.90;;;;;;5093502;28;19988;-66
2023/06/17 05:33:59;;;;;;;;;;;18.30;99.90;;;;;;5093591;28;20089;-66
2023/06/17 05:36:25;;;;;;;;;;;18.30;99.90;;;;;;5093573;28;19981;-66
2023/06/17 05:38:51;;;;;;;;;;;18.30;99.90;;;;;;5093600;28;20012;-64
2023/06/17 05:41:16;;;;;;;;;;;18.30;99.90;;;;;;5093479;28;20004;-64
2023/06/17 05:43:42;;;;;;;;;;;18.40;99.90;;;;;;5093549;28;20316;-66
2023/06/17 05:46:07;;;;;;;;;;;18.50;99.90;;;;;;5093338;28;20040;-64
2023/06/17 05:48:33;;;;;;;;;;;18.50;99.90;;;;;;5093428;28;20005;-65
2023/06/17 05:50:58;;;;;;;;;;;18.60;99.90;;;;;;5093637;28;19985;-66
2023/06/17 05:53:24;;;;;;;;;;;18.60;99.90;;;;;;5093499;28;20351;-66
2023/06/17 05:55:49;;;;;;;;;;;18.60;99.90;;;;;;5093411;28;20031;-65
2023/06/17 05:58:15;;;;;;;;;;;18.70;99.90;;;;;;5093746;28;20359;-64
2023/06/17 06:00:40;;;;;;;;;;;18.80;99.90;;;;;;5093270;28;19985;-64
2023/06/17 06:03:06;;;;;;;;;;;18.90;99.90;;;;;;5093269;28;20073;-64
2023/06/17 06:05:31;;;;;;;;;;;18.90;99.90;;;;;;5093184;28;20104;-64
2023/06/17 06:07:57;;;;;;;;;;;19.00;99.90;;;;;;5093290;28;20013;-64
2023/06/17 06:10:24;;;;;;;;;;;19.10;99.90;;;;;;5093282;28;19981;-65
2023/06/17 06:12:50;;;;;;;;;;;19.20;99.90;;;;;;5093236;28;19985;-67
2023/06/17 06:15:16;;;;;;;;;;;19.30;99.90;;;;;;5092999;28;20007;-66
2023/06/17 06:17:41;;;;;;;;;;;19.40;99.90;;;;;;5093302;28;19992;-66
2023/06/17 06:20:07;;;;;;;;;;;19.50;99.90;;;;;;5093110;28;19982;-64
2023/06/17 06:22:32;;;;;;;;;;;19.50;99.90;;;;;;5094816;28;20071;-64
2023/06/17 06:24:58;;;;;;;;;;;19.70;99.90;;;;;;5096893;28;20076;-66
2023/06/17 06:27:23;;;;;;;;;;;19.70;99.90;;;;;;5096648;28;20005;-65
2023/06/17 06:29:49;;;;;;;;;;;19.70;99.90;;;;;;5096657;28;19990;-66
2023/06/17 06:32:15;;;;;;;;;;;19.80;99.90;;;;;;5096838;28;20024;-64
2023/06/17 06:34:40;;;;;;;;;;;19.80;99.90;;;;;;5096632;28;19985;-64
2023/06/17 06:37:06;;;;;;;;;;;20.00;99.90;;;;;;5096525;28;20069;-65
2023/06/17 06:39:32;;;;;;;;;;;20.20;99.90;;;;;;5096668;28;19981;-66
2023/06/17 06:41:57;;;;;;;;;;;20.40;99.90;;;;;;5096516;28;19992;-65
2023/06/17 06:44:23;;;;;;;;;;;20.60;99.90;;;;;;5096190;28;19981;-66
2023/06/17 06:46:48;;;;;;;;;;;20.80;99.80;;;;;;5096462;28;20067;-66
2023/06/17 06:49:14;;;;;;;;;;;21.00;99.30;;;;;;5096406;28;19981;-66
2023/06/17 06:51:41;;;;;;;;;;;21.00;99.40;;;;;;5096540;28;19992;-66
2023/06/17 06:54:06;;;;;;;;;;;21.00;99.90;;;;;;5096403;28;19981;-64
2023/06/17 06:56:32;;;;;;;;;;;21.20;99.90;;;;;;5096335;28;20346;-65
2023/06/17 06:58:57;;;;;;;;;;;21.50;97.90;;;;;;5096019;28;19988;-66
2023/06/17 07:01:23;;;;;;;;;;;21.50;96.70;;;;;;5096203;28;20003;-66
2023/06/17 07:03:49;;;;;;;;;;;21.50;96.00;;;;;;5095992;28;20030;-67
2023/06/17 07:06:15;;;;;;;;;;;21.60;95.00;;;;;;5096272;28;19997;-67
2023/06/17 07:08:40;;;;;;;;;;;21.60;95.00;;;;;;5095924;28;20481;-67
2023/06/17 07:11:06;;;;;;;;;;;21.60;95.40;;;;;;5096066;28;20458;-67
2023/06/17 07:13:32;;;;;;;;;;;21.50;95.30;;;;;;5095678;28;20407;-67
2023/06/17 07:15:57;;;;;;;;;;;21.50;94.20;;;;;;5095814;28;19982;-67
2023/06/17 07:18:23;;;;;;;;;;;21.60;93.30;;;;;;5095885;28;20024;-66
2023/06/17 07:20:48;;;;;;;;;;;21.40;93.00;;;;;;5095882;28;19981;-65
2023/06/17 07:23:14;;;;;;;;;;;21.30;93.80;;;;;;5095676;28;20019;-64
2023/06/17 07:25:39;;;;;;;;;;;21.30;94.20;;;;;;5095867;28;19988;-64
2023/06/17 07:28:07;;;;;;;;;;;21.30;94.30;;;;;;5095383;28;20052;-64
2023/06/17 07:30:32;;;;;;;;;;;21.40;93.80;;;;;;5095548;28;19981;-64
2023/06/17 07:32:58;;;;;;;;;;;21.50;93.00;;;;;;5095466;28;19993;-64
2023/06/17 07:35:24;;;;;;;;;;;21.50;92.20;;;;;;5094955;28;19981;-64
2023/06/17 07:37:52;;;;;;;;;;;21.60;92.60;;;;;;5095518;28;20072;-64
2023/06/17 07:40:18;;;;;;;;;;;21.70;92.60;;;;;;5095565;28;20375;-64
2023/06/17 07:42:44;;;;;;;;;;;21.90;92.20;;;;;;5095300;28;19981;-64
2023/06/17 07:45:10;;;;;;;;;;;22.10;91.70;;;;;;5095607;28;20067;-64
2023/06/17 07:47:35;;;;;;;;;;;22.40;91.00;;;;;;5095059;28;20016;-64
2023/06/17 07:50:01;;;;;;;;;;;22.80;90.50;;;;;;5095220;28;19985;-65
2023/06/17 07:52:27;;;;;;;;;;;23.90;89.70;;;;;;5095284;28;20020;-68
2023/06/17 07:54:53;;;;;;;;;;;25.50;84.60;;;;;;5095101;28;19996;-64
2023/06/17 07:57:18;;;;;;;;;;;26.70;80.60;;;;;;5094905;28;19985;-65
2023/06/17 07:59:44;;;;;;;;;;;27.80;72.80;;;;;;5095061;28;19982;-66
2023/06/17 08:02:10;;;;;;;;;;;27.70;71.20;;;;;;5094798;28;20076;-64
2023/06/17 08:04:36;;;;;;;;;;;27.10;71.60;;;;;;5095346;28;19996;-65
2023/06/17 08:07:02;;;;;;;;;;;27.20;72.70;;;;;;5094986;28;20013;-65
2023/06/17 08:09:28;;;;;;;;;;;27.60;73.00;;;;;;5095068;28;20356;-65
2023/06/17 08:11:54;;;;;;;;;;;28.00;68.90;;;;;;5094751;28;19981;-64
2023/06/17 08:14:20;;;;;;;;;;;29.60;69.10;;;;;;5094746;28;20067;-65
2023/06/17 08:16:45;;;;;;;;;;;30.80;63.20;;;;;;5094683;28;19985;-64
2023/06/17 08:19:11;;;;;;;;;;;31.30;62.80;;;;;;5094596;28;20078;-66
2023/06/17 08:21:37;;;;;;;;;;;31.30;58.90;;;;;;5094967;28;20015;-66
2023/06/17 08:24:15;;;;;;;;;;;31.50;60.10;;;;;;5094627;28;20024;-66
2023/06/17 08:26:43;;;;;;;;;;;31.20;58.10;;;;;;5094386;28;19991;-65
2023/06/17 08:29:15;;;;;;;;;;;30.40;57.40;;;;;;5094622;28;20083;-66
2023/06/17 08:31:44;;;;;;;;;;;29.90;57.30;;;;;;5094382;28;20436;-65
2023/06/17 08:34:10;;;;;;;;;;;29.50;57.60;;;;;;5094512;28;19981;-64
2023/06/17 08:36:38;;;;;;;;;;;29.20;57.80;;;;;;5094450;28;19981;-64
2023/06/17 08:39:04;;;;;;;;;;;28.80;58.80;;;;;;5094283;28;19981;-65
2023/06/17 08:41:30;;;;;;;;;;;28.00;58.90;;;;;;5094357;28;19988;-64
2023/06/17 08:43:57;;;;;;;;;;;27.40;59.80;;;;;;5094571;28;19996;-65
2023/06/17 08:46:24;;;;;;;;;;;27.00;61.70;;;;;;5094135;28;19992;-65
2023/06/17 08:48:50;;;;;;;;;;;26.40;63.00;;;;;;5094132;28;20028;-64
2023/06/17 08:51:17;;;;;;;;;;;26.20;64.70;;;;;;5094456;28;20392;-64
2023/06/17 08:53:43;;;;;;;;;;;26.20;63.30;;;;;;5093905;28;19982;-65
2023/06/17 08:56:09;;;;;;;;;;;26.30;63.10;;;;;;5094161;28;19981;-66
2023/06/17 08:58:37;;;;;;;;;;;26.30;63.60;;;;;;5094123;28;19981;-65
2023/06/17 09:01:03;;;;;;;;;;;26.50;63.90;;;;;;5093940;28;19989;-65
2023/06/17 09:03:30;;;;;;;;;;;26.30;63.40;;;;;;5093850;28;20390;-63
2023/06/17 09:05:56;;;;;;;;;;;25.80;63.30;;;;;;5093899;28;19997;-65
2023/06/17 09:08:21;;;;;;;;;;;25.50;64.60;;;;;;5093643;28;20371;-65
2023/06/17 09:10:47;;;;;;;;;;;25.10;63.80;;;;;;5093823;28;19981;-65
2023/06/17 09:13:13;;;;;;;;;;;25.00;66.50;;;;;;5093980;28;19988;-64
2023/06/17 09:15:39;;;;;;;;;;;24.90;66.70;;;;;;5093731;28;19985;-65
2023/06/17 09:18:05;;;;;;;;;;;25.00;66.10;;;;;;5093705;28;20036;-66
2023/06/17 09:20:34;;;;;;;;;;;25.20;68.20;;;;;;5093944;28;20016;-64
2023/06/17 09:23:00;;;;;;;;;;;25.20;66.30;;;;;;5093836;28;19985;-66
2023/06/17 09:25:25;;;;;;;;;;;25.10;68.10;;;;;;5093942;28;19985;-64
2023/06/17 09:27:52;;;;;;;;;;;25.00;65.70;;;;;;5093718;28;20526;-64
2023/06/17 09:30:20;;;;;;;;;;;25.20;68.90;;;;;;5093723;28;19987;-64
2023/06/17 09:32:49;;;;;;;;;;;25.20;66.60;;;;;;5093620;28;20329;-64
2023/06/17 09:35:15;;;;;;;;;;;25.30;66.70;;;;;;5093766;28;19985;-66
2023/06/17 09:37:51;;;;;;;;;;;25.30;66.30;;;;;;5093445;28;20030;-65
2023/06/17 09:40:18;;;;;;;;;;;25.40;65.60;;;;;;5093798;28;19992;-64
2023/06/17 09:42:44;;;;;;;;;;;25.50;66.10;;;;;;5093862;28;19981;-63
2023/06/17 09:45:11;;;;;;;;;;;25.50;66.90;;;;;;5093555;28;19985;-65
2023/06/17 09:47:37;;;;;;;;;;;25.30;66.50;;;;;;5093439;28;20104;-65
2023/06/17 09:50:03;;;;;;;;;;;25.20;69.60;;;;;;5093478;28;20444;-66
2023/06/17 09:52:35;;;;;;;;;;;25.10;69.40;;;;;;5092015;28;20438;-65
2023/06/17 09:55:02;;;;;;;;;;;24.60;68.40;;;;;;5093481;28;20004;-64
2023/06/17 09:57:31;;;;;;;;;;;24.60;68.80;;;;;;5095040;28;20083;-64
2023/06/17 09:59:57;;;;;;;;;;;24.60;69.20;;;;;;5097370;28;19985;-64
2023/06/17 10:02:23;;;;;;;;;;;24.60;67.30;;;;;;5097072;28;20157;-64
2023/06/17 10:04:48;;;;;;;;;;;24.70;64.80;;;;;;5097382;28;19981;-66
2023/06/17 10:07:14;;;;;;;;;;;24.90;67.00;;;;;;5096844;28;20016;-65
2023/06/17 10:09:40;;;;;;;;;;;25.00;68.20;;;;;;5097127;28;19982;-64
2023/06/17 10:12:06;;;;;;;;;;;25.20;65.10;;;;;;5097713;28;20339;-65
2023/06/17 10:14:33;;;;;;;;;;;25.30;64.70;;;;;;5097082;28;19985;-64
2023/06/17 10:16:59;;;;;;;;;;;25.40;66.70;;;;;;5097006;28;19988;-66
2023/06/17 10:19:27;;;;;;;;;;;25.60;65.20;;;;;;5097023;28;20031;-65
2023/06/17 10:21:54;;;;;;;;;;;25.50;65.30;;;;;;5096754;28;19982;-64
2023/06/17 10:24:20;;;;;;;;;;;25.50;64.20;;;;;;5096855;28;19992;-65
2023/06/17 10:26:49;;;;;;;;;;;25.40;64.10;;;;;;5097200;28;20335;-65
2023/06/17 10:29:15;;;;;;;;;;;25.40;62.20;;;;;;5096879;28;19981;-64
2023/06/17 10:31:42;;;;;;;;;;;25.30;65.20;;;;;;5096738;28;20395;-64
2023/06/17 10:34:14;;;;;;;;;;;25.40;65.80;;;;;;5097048;28;19992;-66
2023/06/17 10:36:40;;;;;;;;;;;25.40;63.80;;;;;;5096592;28;19988;-64
2023/06/17 10:39:10;;;;;;;;;;;25.70;64.40;;;;;;5096555;28;19981;-66
2023/06/17 10:41:38;;;;;;;;;;;25.90;61.90;;;;;;5096619;28;20076;-65
2023/06/17 10:44:22;;;;;;;;;;;25.90;65.80;;;;;;5096562;28;19988;-65
2023/06/17 10:46:51;;;;;;;;;;;25.70;65.20;;;;;;5096665;28;19992;-64
2023/06/17 10:49:17;;;;;;;;;;;25.70;66.50;;;;;;5096724;28;19991;-64
2023/06/17 10:51:49;;;;;;;;;;;25.90;64.60;;;;;;5096135;28;19989;-63
2023/06/17 10:54:14;;;;;;;;;;;26.00;66.30;;;;;;5096355;28;19988;-65
2023/06/17 10:56:49;;;;;;;;;;;26.10;65.00;;;;;;5096377;28;19981;-65
2023/06/17 10:59:15;;;;;;;;;;;26.10;66.80;;;;;;5096227;28;19992;-65
2023/06/17 11:01:43;;;;;;;;;;;26.40;62.50;;;;;;5096213;28;19989;-63
2023/06/17 11:04:09;;;;;;;;;;;26.30;62.20;;;;;;5095841;28;20128;-64
2023/06/17 11:06:35;;;;;;;;;;;26.30;63.50;;;;;;5095955;28;20367;-64
2023/06/17 11:09:04;;;;;;;;;;;26.10;63.30;;;;;;5094972;28;19989;-65
2023/06/17 11:11:30;;;;;;;;;;;26.00;64.00;;;;;;5096008;28;19985;-65
2023/06/17 11:13:55;;;;;;;;;;;25.90;67.20;;;;;;5095897;28;19988;-63
2023/06/17 11:16:21;;;;;;;;;;;25.80;64.90;;;;;;5095868;28;20439;-63
2023/06/17 11:18:46;;;;;;;;;;;25.80;65.00;;;;;;5095726;28;19981;-65
2023/06/17 11:21:13;;;;;;;;;;;25.90;66.70;;;;;;5095692;28;19981;-64
2023/06/17 11:23:42;;;;;;;;;;;26.30;64.80;;;;;;5095796;28;19985;-63
2023/06/17 11:26:08;;;;;;;;;;;26.80;64.20;;;;;;5095820;28;19981;-62
2023/06/17 11:28:35;;;;;;;;;;;27.30;65.00;;;;;;5095799;28;20008;-65
2023/06/17 11:31:01;;;;;;;;;;;27.60;65.10;;;;;;5095936;28;20012;-65
2023/06/17 11:33:28;;;;;;;;;;;28.00;59.90;;;;;;5095428;28;20427;-65
2023/06/17 11:35:53;;;;;;;;;;;28.40;61.10;;;;;;5095722;28;19985;-66
2023/06/17 11:38:20;;;;;;;;;;;28.60;61.30;;;;;;5095594;28;20003;-64
2023/06/17 11:40:46;;;;;;;;;;;28.60;63.10;;;;;;5095432;28;19981;-65
2023/06/17 11:43:12;;;;;;;;;;;28.30;64.20;;;;;;5095270;28;19987;-64
2023/06/17 11:45:37;;;;;;;;;;;27.60;63.70;;;;;;5095465;28;19988;-64
2023/06/17 11:48:04;;;;;;;;;;;27.40;59.90;;;;;;5095038;28;20028;-65
2023/06/17 11:50:30;;;;;;;;;;;27.20;61.00;;;;;;5095514;28;20008;-64
2023/06/17 11:52:58;;;;;;;;;;;27.00;60.30;;;;;;5095270;28;19981;-64
2023/06/17 11:55:30;;;;;;;;;;;27.00;61.40;;;;;;5095144;28;20427;-63
2023/06/17 11:57:56;;;;;;;;;;;27.00;61.40;;;;;;5095357;28;19981;-64
2023/06/17 12:00:22;;;;;;;;;;;27.00;60.60;;;;;;5095065;28;20436;-65
2023/06/17 12:02:48;;;;;;;;;;;26.90;62.40;;;;;;5094621;28;20488;-63
2023/06/17 12:05:13;;;;;;;;;;;27.30;60.70;;;;;;5094951;28;19981;-65
2023/06/17 12:07:39;;;;;;;;;;;27.60;60.90;;;;;;5095080;28;20095;-63
2023/06/17 12:10:06;;;;;;;;;;;27.90;59.80;;;;;;5095223;28;19989;-64
2023/06/17 12:12:32;;;;;;;;;;;28.10;57.40;;;;;;5094907;28;19985;-63
2023/06/17 12:15:00;;;;;;;;;;;27.90;58.80;;;;;;5094724;28;19981;-64
2023/06/17 12:17:41;;;;;;;;;;;27.40;58.70;;;;;;5094801;28;20386;-64
2023/06/17 12:20:27;;;;;;;;;;;27.30;59.40;;;;;;5092955;28;20032;-65
2023/06/17 12:22:53;;;;;;;;;;;27.20;59.90;;;;;;5094397;28;20347;-65
2023/06/17 12:25:19;;;;;;;;;;;27.30;59.70;;;;;;5094415;28;20426;-66
2023/06/17 12:27:45;;;;;;;;;;;27.20;59.60;;;;;;5094582;28;20056;-63
2023/06/17 12:30:11;;;;;;;;;;;27.10;58.60;;;;;;5094493;28;19988;-63
2023/06/17 12:32:37;;;;;;;;;;;26.80;60.00;;;;;;5094216;28;19988;-64
2023/06/17 12:35:03;;;;;;;;;;;26.80;59.30;;;;;;5094461;28;19985;-63
2023/06/17 12:37:31;;;;;;;;;;;26.60;60.20;;;;;;5094514;28;19981;-63
2023/06/17 12:39:59;;;;;;;;;;;26.40;61.70;;;;;;5094428;28;20351;-64
2023/06/17 12:42:25;;;;;;;;;;;26.30;60.40;;;;;;5094472;28;19984;-65
2023/06/17 12:44:51;;;;;;;;;;;26.20;60.20;;;;;;5094760;28;20347;-63
2023/06/17 12:47:18;;;;;;;;;;;26.20;61.60;;;;;;5094235;28;20020;-66
2023/06/17 12:49:44;;;;;;;;;;;26.30;61.70;;;;;;5094172;28;19981;-65
2023/06/17 12:52:09;;;;;;;;;;;26.20;63.00;;;;;;5094209;28;19988;-63
2023/06/17 12:54:35;;;;;;;;;;;26.00;62.60;;;;;;5094068;28;20034;-65
2023/06/17 12:57:01;;;;;;;;;;;25.70;64.10;;;;;;5094051;28;20031;-64
2023/06/17 12:59:26;;;;;;;;;;;25.60;63.10;;;;;;5093994;28;19988;-65
2023/06/17 13:01:52;;;;;;;;;;;25.60;64.20;;;;;;5093885;28;19981;-64
2023/06/17 13:04:17;;;;;;;;;;;25.50;63.40;;;;;;5093789;28;20107;-64
2023/06/17 13:06:44;;;;;;;;;;;25.40;63.80;;;;;;5093948;28;20004;-63
2023/06/17 13:09:10;;;;;;;;;;;25.20;61.70;;;;;;5094226;28;19992;-64
2023/06/17 13:11:36;;;;;;;;;;;25.00;61.50;;;;;;5093843;28;19981;-64
2023/06/17 13:14:03;;;;;;;;;;;24.90;62.30;;;;;;5094012;28;20443;-63
2023/06/17 13:16:29;;;;;;;;;;;24.90;63.00;;;;;;5093906;28;19985;-65
2023/06/17 13:18:56;;;;;;;;;;;25.00;63.30;;;;;;5093991;28;19988;-63
2023/06/17 13:21:22;;;;;;;;;;;25.00;63.10;;;;;;5094051;28;19993;-65
2023/06/17 13:23:49;;;;;;;;;;;25.20;63.30;;;;;;5093822;28;20448;-63
2023/06/17 13:26:17;;;;;;;;;;;25.50;61.80;;;;;;5094102;28;20435;-64
2023/06/17 13:28:42;;;;;;;;;;;25.80;62.40;;;;;;5093683;28;20016;-66
2023/06/17 13:31:08;;;;;;;;;;;25.90;62.00;;;;;;5093797;28;19993;-64
2023/06/17 13:33:34;;;;;;;;;;;25.90;61.90;;;;;;5097309;28;19985;-65
2023/06/17 13:35:59;;;;;;;;;;;26.00;63.30;;;;;;5097783;28;20071;-64
2023/06/17 13:38:25;;;;;;;;;;;26.00;63.10;;;;;;5097910;28;19981;-64
2023/06/17 13:40:50;;;;;;;;;;;26.00;64.00;;;;;;5097762;28;19990;-64
2023/06/17 13:43:17;;;;;;;;;;;25.80;62.30;;;;;;5097693;28;19985;-65
2023/06/17 13:45:42;;;;;;;;;;;25.70;63.00;;;;;;5097771;28;20031;-64
2023/06/17 13:48:08;;;;;;;;;;;25.70;63.90;;;;;;5097471;28;20008;-63
2023/06/17 13:50:33;;;;;;;;;;;25.50;64.70;;;;;;5097482;28;20016;-65
2023/06/17 13:52:59;;;;;;;;;;;25.50;64.00;;;;;;5096292;28;20016;-63
2023/06/17 13:55:25;;;;;;;;;;;25.40;59.30;;;;;;5097576;28;19985;-65
2023/06/17 13:57:50;;;;;;;;;;;25.40;63.10;;;;;;5097448;28;20454;-64
2023/06/17 14:00:16;;;;;;;;;;;25.40;61.80;;;;;;5097464;28;20046;-64
2023/06/17 14:02:42;;;;;;;;;;;25.30;61.60;;;;;;5097301;28;20105;-63
2023/06/17 14:05:08;;;;;;;;;;;25.30;61.20;;;;;;5097249;28;20039;-63
2023/06/17 14:07:34;;;;;;;;;;;25.20;60.60;;;;;;5097320;28;20053;-63
2023/06/17 14:10:00;;;;;;;;;;;25.10;61.10;;;;;;5097252;28;20064;-63
2023/06/17 14:12:26;;;;;;;;;;;25.10;59.60;;;;;;5097464;28;20347;-62